Time;durP1;ratioP1;P1;durP2;ratioP2;P2;SDS_P1;SDS_P2;PMS_P1;PMS_P2;Temp;Humidity;BMP_temperature;BMP_pressure;BME280_temperature;BME280_humidity;BME280_pressure;Samples;Min_cycle;Max_cycle;Signal;HPM_P1;HPM_P2
2024/03/23 00:01:31;;;;;;;4.78;4.57;;;11.80;99.90;;;;;;5087663;28;20404;-77
2024/03/23 00:03:58;;;;;;;0.33;0.33;;;11.80;99.90;;;;;;5087842;28;20208;-73
2024/03/23 00:06:24;;;;;;;0.30;0.20;;;11.80;99.90;;;;;;5085674;28;20420;-77
2024/03/23 00:08:51;;;;;;;0.30;0.20;;;11.70;99.90;;;;;;5087418;28;20472;-77
2024/03/23 00:11:17;;;;;;;0.40;0.30;;;11.70;99.90;;;;;;5085851;28;20413;-73
2024/03/23 00:13:44;;;;;;;0.40;0.40;;;11.60;99.90;;;;;;5085969;28;20544;-72
2024/03/23 00:16:10;;;;;;;0.30;0.20;;;11.60;99.90;;;;;;5087189;28;20464;-73
2024/03/23 00:18:37;;;;;;;2.35;2.25;;;11.60;99.90;;;;;;5086876;28;20239;-77
2024/03/23 00:21:03;;;;;;;0.30;0.30;;;11.60;99.90;;;;;;5086111;28;20177;-77
2024/03/23 00:23:30;;;;;;;3.20;1.80;;;11.50;99.90;;;;;;5085565;28;20258;-73
2024/03/23 00:25:56;;;;;;;0.30;0.20;;;11.50;99.90;;;;;;5087492;28;20480;-77
2024/03/23 00:28:23;;;;;;;0.50;0.50;;;11.50;99.90;;;;;;5085467;28;20612;-77
2024/03/23 00:30:49;;;;;;;1.00;1.00;;;11.40;99.90;;;;;;5085765;28;20837;-73
2024/03/23 00:33:16;;;;;;;1.77;1.75;;;11.40;99.90;;;;;;5086902;28;20460;-75
2024/03/23 00:35:42;;;;;;;0.30;0.20;;;11.40;99.90;;;;;;5087428;28;20169;-72
2024/03/23 00:38:09;;;;;;;3.70;2.83;;;11.30;99.90;;;;;;5086848;28;20562;-77
2024/03/23 00:40:36;;;;;;;1.05;1.05;;;11.30;99.90;;;;;;5085773;28;20195;-73
2024/03/23 00:43:02;;;;;;;0.30;0.20;;;11.30;99.90;;;;;;5085016;28;20224;-73
2024/03/23 00:45:29;;;;;;;0.30;0.22;;;11.20;99.90;;;;;;5086779;28;20165;-72
2024/03/23 00:47:55;;;;;;;0.68;0.68;;;11.20;99.90;;;;;;5086770;28;20570;-77
2024/03/23 00:50:22;;;;;;;0.30;0.20;;;11.20;99.90;;;;;;5085386;28;20188;-77
2024/03/23 00:52:48;;;;;;;0.32;0.30;;;11.20;99.90;;;;;;5086589;28;20261;-73
2024/03/23 00:55:14;;;;;;;0.40;0.30;;;11.20;99.90;;;;;;5086780;28;20401;-73
2024/03/23 00:57:39;;;;;;;0.63;0.60;;;11.20;99.90;;;;;;5084711;28;20445;-77
2024/03/23 01:00:06;;;;;;;0.30;0.20;;;11.20;99.90;;;;;;5084789;28;20689;-73
2024/03/23 01:02:32;;;;;;;0.30;0.20;;;11.10;99.90;;;;;;5085959;28;20356;-78
2024/03/23 01:04:58;;;;;;;2.90;2.80;;;11.10;99.90;;;;;;5086899;28;20436;-73
2024/03/23 01:07:23;;;;;;;0.50;0.50;;;11.10;99.90;;;;;;5086087;28;20608;-77
2024/03/23 01:09:49;;;;;;;0.30;0.20;;;11.10;99.90;;;;;;5086352;28;20175;-77
2024/03/23 01:12:15;;;;;;;0.30;0.30;;;11.10;99.90;;;;;;5086160;28;20177;-76
2024/03/23 01:14:40;;;;;;;1.13;1.13;;;11.10;99.90;;;;;;5084917;28;20177;-78
2024/03/23 01:17:06;;;;;;;0.50;0.50;;;11.10;99.90;;;;;;5084255;28;20289;-77
2024/03/23 01:19:32;;;;;;;0.30;0.20;;;11.10;99.90;;;;;;5084703;28;20177;-73
2024/03/23 01:21:57;;;;;;;0.30;0.20;;;11.10;99.90;;;;;;5085926;28;20180;-78
2024/03/23 01:24:23;;;;;;;0.30;0.20;;;11.10;99.90;;;;;;5084725;28;20290;-73
2024/03/23 01:26:49;;;;;;;0.63;0.63;;;11.10;99.90;;;;;;5084724;28;20183;-73
2024/03/23 01:29:14;;;;;;;22.77;4.53;;;11.10;99.90;;;;;;5085925;28;20417;-77
2024/03/23 01:31:40;;;;;;;0.30;0.20;;;11.10;99.90;;;;;;5085849;28;20624;-77
2024/03/23 01:34:05;;;;;;;0.70;0.70;;;11.10;99.90;;;;;;5085936;28;20295;-78
2024/03/23 01:36:31;;;;;;;0.30;0.20;;;11.20;99.90;;;;;;5085482;28;20685;-77
2024/03/23 01:38:57;;;;;;;0.30;0.20;;;11.20;99.90;;;;;;5085840;28;20239;-73
2024/03/23 01:41:24;;;;;;;0.77;0.57;;;11.30;99.90;;;;;;5085972;28;20660;-73
2024/03/23 01:43:50;;;;;;;1.50;1.50;;;11.30;99.90;;;;;;5085921;28;20288;-78
2024/03/23 01:46:16;;;;;;;0.43;0.43;;;11.30;99.90;;;;;;5084147;28;20491;-77
2024/03/23 01:48:42;;;;;;;0.30;0.20;;;11.20;99.90;;;;;;5086179;28;20597;-73
2024/03/23 01:51:08;;;;;;;0.70;0.70;;;11.30;99.90;;;;;;5084493;28;20188;-72
2024/03/23 01:53:34;;;;;;;3.22;1.55;;;11.30;99.90;;;;;;5084023;28;20449;-78
2024/03/23 01:56:02;;;;;;;0.30;0.20;;;11.30;99.90;;;;;;5086096;28;20173;-73
2024/03/23 01:58:28;;;;;;;0.50;0.50;;;11.30;99.90;;;;;;5085083;28;20287;-72
2024/03/23 02:00:54;;;;;;;0.30;0.20;;;11.30;99.90;;;;;;5084766;28;20313;-73
2024/03/23 02:03:37;;;;;;;0.30;0.20;;;11.30;99.90;;;;;;5085503;28;20205;-78
2024/03/23 02:06:04;;;;;;;0.30;0.20;;;11.30;99.90;;;;;;5084611;28;20485;-72
2024/03/23 02:08:31;;;;;;;0.30;0.30;;;11.20;99.90;;;;;;5084885;28;20964;-76
2024/03/23 02:10:58;;;;;;;3.13;3.03;;;11.20;99.90;;;;;;5085861;28;20850;-73
2024/03/23 02:13:24;;;;;;;0.30;0.20;;;11.20;99.90;;;;;;5083736;28;20204;-78
2024/03/23 02:15:50;;;;;;;0.30;0.20;;;11.20;99.90;;;;;;5084082;28;20183;-77
2024/03/23 02:18:15;;;;;;;0.30;0.20;;;11.20;99.90;;;;;;5084614;28;20224;-73
2024/03/23 02:20:41;;;;;;;0.30;0.20;;;11.10;99.90;;;;;;5085556;28;20406;-77
2024/03/23 02:23:16;;;;;;;1.33;1.23;;;11.10;99.90;;;;;;5083878;28;20414;-72
2024/03/23 02:25:42;;;;;;;1.10;1.10;;;11.10;99.90;;;;;;5085899;28;20156;-73
2024/03/23 02:28:07;;;;;;;1.23;1.23;;;11.10;99.90;;;;;;5083594;28;20609;-72
2024/03/23 02:30:33;;;;;;;0.30;0.20;;;11.10;99.90;;;;;;5083902;28;20673;-77
2024/03/23 02:32:59;;;;;;;3.50;3.30;;;11.00;99.90;;;;;;5084897;28;20471;-72
2024/03/23 02:35:25;;;;;;;0.30;0.20;;;11.00;99.90;;;;;;5085612;28;20205;-73
2024/03/23 02:37:51;;;;;;;0.30;0.20;;;11.00;99.90;;;;;;5083408;28;20492;-73
2024/03/23 02:40:17;;;;;;;9.30;8.60;;;10.90;99.90;;;;;;5085401;28;20207;-77
2024/03/23 02:42:43;;;;;;;2.35;2.25;;;10.90;99.90;;;;;;5084853;28;20207;-77
2024/03/23 02:45:09;;;;;;;0.30;0.20;;;10.80;99.90;;;;;;5083883;28;20177;-73
2024/03/23 02:47:35;;;;;;;0.30;0.20;;;10.80;99.90;;;;;;5083553;28;20623;-78
2024/03/23 02:50:00;;;;;;;8.47;7.70;;;10.80;99.90;;;;;;5084028;28;20505;-77
2024/03/23 02:52:26;;;;;;;0.50;0.50;;;10.70;99.90;;;;;;5086409;28;20463;-72
2024/03/23 02:54:52;;;;;;;0.30;0.20;;;10.70;99.90;;;;;;5087639;28;20809;-72
2024/03/23 02:57:18;;;;;;;0.47;0.47;;;10.70;99.90;;;;;;5088585;28;20670;-72
2024/03/23 02:59:43;;;;;;;0.30;0.20;;;10.60;99.90;;;;;;5087597;28;20638;-75
2024/03/23 03:02:09;;;;;;;0.40;0.20;;;10.60;99.90;;;;;;5086192;28;20794;-72
2024/03/23 03:04:35;;;;;;;3.97;3.70;;;10.50;99.90;;;;;;5087287;28;20184;-77
2024/03/23 03:07:00;;;;;;;0.30;0.20;;;10.50;99.90;;;;;;5088548;28;20177;-77
2024/03/23 03:09:26;;;;;;;0.40;0.40;;;10.50;99.90;;;;;;5088345;28;20188;-73
2024/03/23 03:11:52;;;;;;;0.40;0.20;;;10.50;99.90;;;;;;5088781;28;20177;-72
2024/03/23 03:14:18;;;;;;;0.30;0.20;;;10.60;99.90;;;;;;5088329;28;20188;-72
2024/03/23 03:16:43;;;;;;;0.30;0.20;;;10.60;99.90;;;;;;5088421;28;20227;-77
2024/03/23 03:19:10;;;;;;;1.07;1.07;;;10.70;99.90;;;;;;5088392;28;20673;-72
2024/03/23 03:21:36;;;;;;;2.42;2.35;;;10.70;99.90;;;;;;5088565;28;20180;-77
2024/03/23 03:24:03;;;;;;;0.40;0.20;;;10.70;99.90;;;;;;5087165;28;20228;-73
2024/03/23 03:26:29;;;;;;;3.45;3.35;;;10.60;99.90;;;;;;5088198;28;20202;-73
2024/03/23 03:28:54;;;;;;;0.30;0.30;;;10.70;99.90;;;;;;5086938;28;20597;-73
2024/03/23 03:31:20;;;;;;;0.30;0.27;;;10.70;99.90;;;;;;5086974;28;20221;-77
2024/03/23 03:33:46;;;;;;;0.80;0.80;;;10.70;99.90;;;;;;5086615;28;20406;-73
2024/03/23 03:36:12;;;;;;;7.37;7.03;;;10.70;99.90;;;;;;5088274;28;20263;-73
2024/03/23 03:38:40;;;;;;;0.50;0.50;;;10.70;99.90;;;;;;5086876;28;20492;-72
2024/03/23 03:41:06;;;;;;;0.30;0.20;;;10.70;99.90;;;;;;5087060;28;20184;-77
2024/03/23 03:43:32;;;;;;;0.30;0.20;;;10.70;99.90;;;;;;5087978;28;20212;-77
2024/03/23 03:45:59;;;;;;;0.40;0.30;;;10.70;99.90;;;;;;5087062;28;20563;-77
2024/03/23 03:48:24;;;;;;;0.30;0.30;;;10.70;99.90;;;;;;5086172;28;20572;-77
2024/03/23 03:50:50;;;;;;;0.30;0.20;;;10.70;99.90;;;;;;5088193;28;20241;-77
2024/03/23 03:53:16;;;;;;;0.70;0.70;;;10.70;99.90;;;;;;5086149;28;20249;-77
2024/03/23 03:55:41;;;;;;;0.63;0.63;;;10.80;99.90;;;;;;5088089;28;20172;-73
2024/03/23 03:58:07;;;;;;;1.70;1.60;;;10.80;99.90;;;;;;5087283;28;20224;-78
2024/03/23 04:00:33;;;;;;;0.30;0.20;;;10.80;99.90;;;;;;5088125;28;20172;-72
2024/03/23 04:02:59;;;;;;;0.30;0.30;;;10.70;99.90;;;;;;5087259;28;20198;-72
2024/03/23 04:05:24;;;;;;;0.30;0.20;;;10.70;99.90;;;;;;5087842;28;20172;-76
2024/03/23 04:07:50;;;;;;;0.30;0.20;;;10.70;99.90;;;;;;5086034;28;20192;-77
2024/03/23 04:10:16;;;;;;;0.53;0.53;;;10.70;99.90;;;;;;5087408;28;20574;-77
2024/03/23 04:12:43;;;;;;;0.30;0.20;;;10.70;99.90;;;;;;5087228;28;20554;-77
2024/03/23 04:15:09;;;;;;;1.40;1.40;;;10.70;99.90;;;;;;5087553;28;20169;-72
2024/03/23 04:17:34;;;;;;;1.43;1.43;;;10.60;99.90;;;;;;5085406;28;20287;-77
2024/03/23 04:20:01;;;;;;;0.30;0.20;;;10.60;99.90;;;;;;5087302;28;20272;-77
2024/03/23 04:22:27;;;;;;;0.30;0.20;;;10.60;99.90;;;;;;5085602;28;20741;-72
2024/03/23 04:24:57;;;;;;;0.95;0.95;;;10.60;99.90;;;;;;5087119;28;20232;-77
2024/03/23 04:27:23;;;;;;;0.30;0.30;;;10.60;99.90;;;;;;5086715;28;20200;-77
2024/03/23 04:29:49;;;;;;;1.70;1.60;;;10.60;99.90;;;;;;5086940;28;20188;-73
2024/03/23 04:32:16;;;;;;;0.30;0.20;;;10.60;99.90;;;;;;5085478;28;20215;-77
2024/03/23 04:34:43;;;;;;;0.30;0.20;;;10.60;99.90;;;;;;5085703;28;20181;-72
2024/03/23 04:37:09;;;;;;;0.50;0.50;;;10.60;99.90;;;;;;5086375;28;20246;-78
2024/03/23 04:39:36;;;;;;;0.93;0.88;;;10.60;99.90;;;;;;5087269;28;20195;-74
2024/03/23 04:42:02;;;;;;;0.40;0.30;;;10.70;99.90;;;;;;5086768;28;20443;-73
2024/03/23 04:44:28;;;;;;;0.32;0.30;;;10.70;99.90;;;;;;5086607;28;20245;-77
2024/03/23 04:46:54;;;;;;;0.30;0.20;;;10.70;99.90;;;;;;5086719;28;20242;-73
2024/03/23 04:49:20;;;;;;;0.97;0.97;;;10.70;99.90;;;;;;5086882;28;20196;-76
2024/03/23 04:51:46;;;;;;;0.30;0.20;;;10.70;99.90;;;;;;5086755;28;20198;-72
2024/03/23 04:54:15;;;;;;;1.30;1.30;;;10.70;99.90;;;;;;5086694;28;20267;-73
2024/03/23 04:56:40;;;;;;;3.90;1.33;;;10.80;99.90;;;;;;5086446;28;20269;-73
2024/03/23 04:59:06;;;;;;;0.40;0.40;;;10.80;99.90;;;;;;5086648;28;20657;-77
2024/03/23 05:01:32;;;;;;;0.30;0.30;;;10.80;99.90;;;;;;5085239;28;20474;-72
2024/03/23 05:03:58;;;;;;;0.30;0.20;;;10.80;99.90;;;;;;5086260;28;20440;-72
2024/03/23 05:06:25;;;;;;;0.30;0.20;;;10.80;99.90;;;;;;5084885;28;20172;-73
2024/03/23 05:08:54;;;;;;;0.30;0.20;;;10.80;99.90;;;;;;5084632;28;20200;-77
2024/03/23 05:11:20;;;;;;;0.35;0.30;;;10.80;99.90;;;;;;5085406;28;20176;-77
2024/03/23 05:13:46;;;;;;;2.47;1.50;;;10.80;99.90;;;;;;5086497;28;20201;-77
2024/03/23 05:16:12;;;;;;;0.30;0.20;;;10.80;99.90;;;;;;5085258;28;20389;-72
2024/03/23 05:18:38;;;;;;;0.30;0.20;;;10.70;99.90;;;;;;5084582;28;20473;-72
2024/03/23 05:21:04;;;;;;;0.30;0.20;;;10.70;99.90;;;;;;5085071;28;20478;-72
2024/03/23 05:23:30;;;;;;;0.30;0.20;;;10.60;99.90;;;;;;5085809;28;20207;-72
2024/03/23 05:25:55;;;;;;;0.40;0.37;;;10.50;99.90;;;;;;5086517;28;20169;-72
2024/03/23 05:28:22;;;;;;;0.80;0.80;;;10.50;99.90;;;;;;5085598;28;20207;-72
2024/03/23 05:30:54;;;;;;;0.30;0.20;;;10.40;99.90;;;;;;5086190;28;20184;-77
2024/03/23 05:33:20;;;;;;;0.40;0.30;;;10.40;99.90;;;;;;5084342;28;20534;-78
2024/03/23 05:35:47;;;;;;;0.30;0.20;;;10.40;99.90;;;;;;5084686;28;20183;-72
2024/03/23 05:38:13;;;;;;;3.22;2.92;;;10.40;99.90;;;;;;5085402;28;20578;-72
2024/03/23 05:40:40;;;;;;;0.60;0.60;;;10.40;99.90;;;;;;5086109;28;20265;-77
2024/03/23 05:43:06;;;;;;;0.30;0.20;;;10.50;99.90;;;;;;5085724;28;20197;-77
2024/03/23 05:45:32;;;;;;;0.30;0.20;;;10.50;99.90;;;;;;5085933;28;20200;-73
2024/03/23 05:47:57;;;;;;;0.30;0.20;;;10.50;99.90;;;;;;5084195;28;20235;-77
2024/03/23 05:50:23;;;;;;;0.50;0.50;;;10.50;99.90;;;;;;5085801;28;20229;-72
2024/03/23 05:52:50;;;;;;;0.30;0.20;;;10.50;99.90;;;;;;5083650;28;20249;-77
2024/03/23 05:55:15;;;;;;;0.30;0.20;;;10.50;99.90;;;;;;5085885;28;20405;-73
2024/03/23 05:57:41;;;;;;;10.50;9.80;;;10.60;99.90;;;;;;5083850;28;20262;-73
2024/03/23 06:00:15;;;;;;;0.30;0.20;;;10.70;99.90;;;;;;5085789;28;20414;-72
2024/03/23 06:02:46;;;;;;;0.30;0.20;;;10.70;99.90;;;;;;5084347;28;20207;-77
2024/03/23 06:05:12;;;;;;;0.45;0.45;;;10.80;99.90;;;;;;5085751;28;20236;-77
2024/03/23 06:07:38;;;;;;;0.30;0.30;;;10.90;99.90;;;;;;5085376;28;20389;-78
2024/03/23 06:10:05;;;;;;;0.30;0.20;;;10.90;99.90;;;;;;5085666;28;20263;-74
2024/03/23 06:12:31;;;;;;;0.30;0.30;;;11.00;99.90;;;;;;5083796;28;20452;-77
2024/03/23 06:14:57;;;;;;;0.35;0.20;;;11.10;99.90;;;;;;5084656;28;20658;-72
2024/03/23 06:17:23;;;;;;;0.30;0.20;;;11.10;99.90;;;;;;5084710;28;20501;-73
2024/03/23 06:19:49;;;;;;;0.43;0.40;;;11.30;99.90;;;;;;5085480;28;20185;-78
2024/03/23 06:22:15;;;;;;;0.50;0.50;;;11.40;99.90;;;;;;5083757;28;20222;-73
2024/03/23 06:24:40;;;;;;;0.40;0.40;;;11.50;99.90;;;;;;5085455;28;20501;-72
2024/03/23 06:27:06;;;;;;;0.30;0.20;;;11.60;99.90;;;;;;5086424;28;20515;-77
2024/03/23 06:29:32;;;;;;;0.60;0.60;;;11.60;99.90;;;;;;5088130;28;20368;-73
2024/03/23 06:31:58;;;;;;;0.60;0.60;;;11.70;99.90;;;;;;5089264;28;20579;-79
2024/03/23 06:34:24;;;;;;;0.50;0.50;;;11.80;99.90;;;;;;5089263;28;20250;-74
2024/03/23 06:36:49;;;;;;;0.70;0.70;;;11.90;99.90;;;;;;5089223;28;20448;-73
2024/03/23 06:39:17;;;;;;;0.40;0.40;;;12.00;99.90;;;;;;5089137;28;20420;-74
2024/03/23 06:41:43;;;;;;;0.50;0.50;;;12.10;99.90;;;;;;5089363;28;20393;-79
2024/03/23 06:44:08;;;;;;;1.53;1.50;;;12.10;99.90;;;;;;5089009;28;20532;-73
2024/03/23 06:46:34;;;;;;;0.40;0.40;;;12.20;99.90;;;;;;5088991;28;20401;-73
2024/03/23 06:49:00;;;;;;;0.30;0.30;;;12.30;99.90;;;;;;5089045;28;20196;-78
2024/03/23 06:51:25;;;;;;;0.30;0.30;;;12.40;99.90;;;;;;5089193;28;20196;-78
2024/03/23 06:53:51;;;;;;;1.03;1.03;;;12.50;99.90;;;;;;5089197;28;20673;-78
2024/03/23 06:56:17;;;;;;;0.30;0.20;;;12.60;99.90;;;;;;5088804;28;20449;-78
2024/03/23 06:58:42;;;;;;;0.40;0.20;;;12.70;99.90;;;;;;5086369;28;20269;-78
2024/03/23 07:01:08;;;;;;;0.90;0.90;;;12.80;99.90;;;;;;5088234;28;20203;-78
2024/03/23 07:03:33;;;;;;;3.20;3.03;;;12.90;99.90;;;;;;5085651;28;20296;-78
2024/03/23 07:05:59;;;;;;;0.40;0.20;;;13.10;99.90;;;;;;5087691;28;20169;-78
2024/03/23 07:08:25;;;;;;;0.30;0.20;;;13.20;99.90;;;;;;5088572;28;20220;-78
2024/03/23 07:10:50;;;;;;;0.30;0.20;;;13.40;99.90;;;;;;5088487;28;20206;-79
2024/03/23 07:13:17;;;;;;;0.30;0.20;;;13.50;99.90;;;;;;5086086;28;20372;-78
2024/03/23 07:15:42;;;;;;;0.87;0.87;;;13.70;99.90;;;;;;5086785;28;20157;-74
2024/03/23 07:18:08;;;;;;;0.60;0.60;;;13.80;99.90;;;;;;5084926;28;20863;-78
2024/03/23 07:20:34;;;;;;;2.97;2.77;;;14.00;99.90;;;;;;5086678;28;20199;-78
2024/03/23 07:23:00;;;;;;;0.30;0.20;;;14.10;99.90;;;;;;5086740;28;20444;-74
2024/03/23 07:25:26;;;;;;;0.30;0.30;;;14.20;99.90;;;;;;5085711;28;20685;-79
2024/03/23 07:27:53;;;;;;;0.50;0.50;;;14.40;99.90;;;;;;5086754;28;20204;-74
2024/03/23 07:30:19;;;;;;;0.30;0.20;;;14.60;99.90;;;;;;5086974;28;20885;-74
2024/03/23 07:32:45;;;;;;;0.33;0.30;;;14.70;99.90;;;;;;5086350;28;20501;-79
2024/03/23 07:35:11;;;;;;;0.40;0.20;;;14.80;99.90;;;;;;5086527;28;20174;-78
2024/03/23 07:37:36;;;;;;;0.30;0.20;;;15.00;99.90;;;;;;5084395;28;20480;-74
2024/03/23 07:40:02;;;;;;;2.30;1.97;;;15.20;99.90;;;;;;5086662;28;20176;-79
2024/03/23 07:42:29;;;;;;;3.63;1.17;;;15.30;99.90;;;;;;5086387;28;20300;-79
2024/03/23 07:44:56;;;;;;;1.53;0.70;;;15.30;99.90;;;;;;5086726;28;20194;-78
2024/03/23 07:47:22;;;;;;;0.40;0.30;;;15.40;99.90;;;;;;5086093;28;20792;-74
2024/03/23 07:49:48;;;;;;;0.30;0.20;;;15.60;99.90;;;;;;5085159;28;20459;-74
2024/03/23 07:52:14;;;;;;;0.30;0.30;;;15.70;99.90;;;;;;5083862;28;20943;-79
2024/03/23 07:54:40;;;;;;;0.50;0.47;;;15.90;99.90;;;;;;5086488;28;21023;-79
2024/03/23 07:57:06;;;;;;;0.53;0.53;;;16.00;99.90;;;;;;5085914;28;20587;-75
2024/03/23 07:59:33;;;;;;;0.30;0.20;;;16.20;99.90;;;;;;5086840;28;20169;-75
2024/03/23 08:01:59;;;;;;;0.30;0.20;;;16.40;99.90;;;;;;5087389;28;20427;-79
2024/03/23 08:04:26;;;;;;;0.97;0.97;;;16.50;99.90;;;;;;5087508;28;20942;-75
2024/03/23 08:06:52;;;;;;;0.63;0.63;;;16.60;99.90;;;;;;5087885;28;20404;-75
2024/03/23 08:09:18;;;;;;;20.13;5.17;;;16.70;99.90;;;;;;5086420;28;20943;-75
2024/03/23 08:11:45;;;;;;;0.30;0.30;;;16.90;99.90;;;;;;5085931;28;20180;-78
2024/03/23 08:14:11;;;;;;;0.30;0.30;;;17.10;99.90;;;;;;5086273;28;20438;-78
2024/03/23 08:16:37;;;;;;;3.60;0.87;;;17.30;99.90;;;;;;5087421;28;20802;-75
2024/03/23 08:19:03;;;;;;;0.80;0.80;;;17.40;99.90;;;;;;5084992;28;20237;-75
2024/03/23 08:21:29;;;;;;;0.40;0.20;;;17.50;99.90;;;;;;5087313;28;20217;-78
2024/03/23 08:23:55;;;;;;;0.30;0.30;;;17.60;99.90;;;;;;5087691;28;20455;-78
2024/03/23 08:26:20;;;;;;;0.30;0.20;;;17.80;99.90;;;;;;5087168;28;20184;-75
2024/03/23 08:28:47;;;;;;;3.53;0.73;;;18.00;99.90;;;;;;5087489;28;20460;-75
2024/03/23 08:31:14;;;;;;;0.30;0.20;;;18.50;99.90;;;;;;5085578;28;20172;-78
2024/03/23 08:33:42;;;;;;;1.70;1.60;;;19.20;99.90;;;;;;5085772;28;20461;-75
2024/03/23 08:36:09;;;;;;;1.07;0.97;;;19.90;99.90;;;;;;5086472;28;20405;-75
2024/03/23 08:38:35;;;;;;;0.63;0.63;;;20.60;99.60;;;;;;5083632;28;20469;-75
2024/03/23 08:41:05;;;;;;;1.07;0.80;;;21.10;98.50;;;;;;5084351;28;20420;-78
2024/03/23 08:43:41;;;;;;;0.40;0.30;;;21.40;97.50;;;;;;5085364;28;20453;-75
2024/03/23 08:46:08;;;;;;;1.80;1.70;;;21.90;96.90;;;;;;5085720;28;20501;-78
2024/03/23 08:48:35;;;;;;;0.97;0.97;;;22.40;95.50;;;;;;5083127;28;20828;-75
2024/03/23 08:51:02;;;;;;;0.40;0.30;;;22.60;94.80;;;;;;5084700;28;20399;-75
2024/03/23 08:53:29;;;;;;;0.53;0.50;;;22.70;94.50;;;;;;5086550;28;20458;-75
2024/03/23 08:56:00;;;;;;;0.67;0.63;;;23.10;93.50;;;;;;5068180;28;20653;-75
2024/03/23 08:58:27;;;;;;;2.30;2.10;;;23.30;92.90;;;;;;5063849;28;20955;-75
2024/03/23 09:00:56;;;;;;;0.47;0.47;;;23.40;92.50;;;;;;5064614;28;20440;-78
2024/03/23 09:03:22;;;;;;;2.93;2.83;;;23.50;92.00;;;;;;5066110;28;20730;-79
2024/03/23 09:05:48;;;;;;;0.30;0.20;;;23.50;91.80;;;;;;5066913;28;20504;-75
2024/03/23 09:08:13;;;;;;;0.30;0.20;;;23.60;91.20;;;;;;5066016;28;20895;-78
2024/03/23 09:10:48;;;;;;;0.40;0.37;;;23.60;91.50;;;;;;5143703;27;20554;-74
2024/03/23 09:13:14;;;;;;;0.60;0.60;;;23.70;91.00;;;;;;5112292;27;20992;-74
2024/03/23 09:15:50;;;;;;;0.30;0.20;;;23.70;90.50;;;;;;5101898;28;20441;-77
2024/03/23 09:18:16;;;;;;;0.63;0.63;;;23.50;90.70;;;;;;5100843;28;20427;-77
2024/03/23 09:20:42;;;;;;;0.30;0.20;;;23.40;90.70;;;;;;5099163;28;20517;-75
2024/03/23 09:23:08;;;;;;;0.40;0.40;;;23.20;90.80;;;;;;5100992;28;20428;-77
2024/03/23 09:25:38;;;;;;;1.33;0.73;;;23.10;90.80;;;;;;5100429;28;20431;-74
2024/03/23 09:28:08;;;;;;;0.70;0.70;;;23.10;91.30;;;;;;5102711;28;20273;-77
2024/03/23 09:30:35;;;;;;;0.30;0.20;;;23.10;90.80;;;;;;5103043;28;20614;-73
2024/03/23 09:33:01;;;;;;;1.73;1.63;;;22.90;90.80;;;;;;5102797;28;20435;-73
2024/03/23 09:35:27;;;;;;;0.57;0.57;;;23.00;91.00;;;;;;5103254;28;20492;-73
2024/03/23 09:37:52;;;;;;;1.90;1.70;;;23.10;90.60;;;;;;5102750;28;20936;-79
2024/03/23 09:40:18;;;;;;;0.57;0.57;;;23.50;90.70;;;;;;5101272;28;20428;-77
2024/03/23 09:42:50;;;;;;;0.97;0.40;;;24.10;90.10;;;;;;5101303;28;20207;-77
2024/03/23 09:45:22;;;;;;;0.30;0.30;;;24.10;89.60;;;;;;5101579;28;20992;-75
2024/03/23 09:47:49;;;;;;;0.37;0.30;;;24.20;88.90;;;;;;5100930;28;20482;-77
2024/03/23 09:50:15;;;;;;;0.40;0.40;;;24.20;88.10;;;;;;5101913;28;20506;-77
2024/03/23 09:52:43;;;;;;;0.57;0.57;;;24.00;88.00;;;;;;5101743;28;20452;-78
2024/03/23 09:55:09;;;;;;;1.47;1.37;;;23.60;88.50;;;;;;5102347;28;20408;-76
2024/03/23 09:57:35;;;;;;;1.77;1.27;;;23.30;89.50;;;;;;5101865;28;20466;-71
2024/03/23 10:00:02;;;;;;;0.40;0.40;;;23.30;89.80;;;;;;5100592;28;20412;-78
2024/03/23 10:02:29;;;;;;;0.60;0.60;;;23.30;89.10;;;;;;5098882;28;20537;-76
2024/03/23 10:04:55;;;;;;;0.30;0.30;;;;;;;;;;5100699;28;20519;-74
2024/03/23 10:07:25;;;;;;;0.40;0.30;;;23.00;88.90;;;;;;5100026;28;20487;-76
2024/03/23 10:09:51;;;;;;;1.52;1.50;;;;;;;;;;5099839;28;20599;-75
2024/03/23 10:12:19;;;;;;;0.97;0.97;;;23.30;88.30;;;;;;5100025;28;20566;-74
2024/03/23 10:14:45;;;;;;;0.30;0.30;;;23.50;88.30;;;;;;5100448;28;20411;-76
2024/03/23 10:17:23;;;;;;;0.30;0.30;;;23.10;88.70;;;;;;5099503;28;20436;-76
2024/03/23 10:19:51;;;;;;;0.87;0.87;;;22.70;88.80;;;;;;5102085;28;20451;-75
2024/03/23 10:22:22;;;;;;;0.30;0.20;;;22.20;89.50;;;;;;5085934;28;20950;-76
2024/03/23 10:24:49;;;;;;;0.40;0.40;;;21.80;90.10;;;;;;5084871;28;20446;-76
2024/03/23 10:27:19;;;;;;;0.30;0.20;;;21.60;90.30;;;;;;5085919;28;20452;-77
2024/03/23 10:29:46;;;;;;;2.20;2.10;;;21.50;90.60;;;;;;5088343;28;20504;-75
2024/03/23 10:32:13;;;;;;;0.63;0.63;;;21.40;90.80;;;;;;5086623;28;20419;-75
2024/03/23 10:34:39;;;;;;;4.37;0.77;;;21.50;90.50;;;;;;5086831;28;20621;-75
2024/03/23 10:37:06;;;;;;;1.33;1.33;;;21.50;91.30;;;;;;5087918;28;20417;-76
2024/03/23 10:39:36;;;;;;;0.30;0.27;;;21.60;91.10;;;;;;5086581;28;20426;-76
2024/03/23 10:42:04;;;;;;;0.70;0.53;;;21.60;90.80;;;;;;5088007;28;20895;-75
2024/03/23 10:44:31;;;;;;;0.30;0.30;;;21.50;90.80;;;;;;5086306;28;20607;-76
2024/03/23 10:47:01;;;;;;;0.30;0.30;;;21.40;91.00;;;;;;5086542;28;20428;-76
2024/03/23 10:49:32;;;;;;;0.37;0.37;;;21.40;90.80;;;;;;5087736;28;20511;-76
2024/03/23 10:52:03;;;;;;;0.30;0.30;;;21.50;90.50;;;;;;5071305;28;21036;-78
2024/03/23 10:54:30;;;;;;;8.20;7.83;;;21.40;90.10;;;;;;5087301;28;20920;-77
2024/03/23 10:57:04;;;;;;;0.40;0.33;;;21.40;90.00;;;;;;5087659;28;20409;-77
2024/03/23 10:59:31;;;;;;;0.30;0.20;;;21.40;90.70;;;;;;5087397;28;20482;-77
2024/03/23 11:01:58;;;;;;;0.40;0.30;;;21.50;90.40;;;;;;5087568;28;20513;-77
2024/03/23 11:04:33;;;;;;;0.30;0.20;;;21.50;90.00;;;;;;5086688;28;20437;-77
2024/03/23 11:06:59;;;;;;;0.30;0.30;;;21.40;90.00;;;;;;5087121;28;20912;-77
2024/03/23 11:09:46;;;;;;;0.30;0.20;;;21.40;89.80;;;;;;5087279;28;20480;-77
2024/03/23 11:12:24;;;;;;;0.30;0.20;;;21.50;90.10;;;;;;5085685;28;20177;-77
2024/03/23 11:15:00;;;;;;;0.30;0.20;;;21.50;88.30;;;;;;5087607;28;20470;-77
2024/03/23 11:17:27;;;;;;;0.30;0.20;;;21.60;89.20;;;;;;5084091;28;20884;-77
2024/03/23 11:20:00;;;;;;;1.03;1.03;;;21.60;88.10;;;;;;5085810;28;20462;-77
2024/03/23 11:22:41;;;;;;;3.70;3.30;;;21.70;88.30;;;;;;5084907;28;20900;-78
2024/03/23 11:25:16;;;;;;;0.30;0.30;;;21.80;87.60;;;;;;5083251;28;20433;-77
2024/03/23 11:27:43;;;;;;;0.50;0.47;;;21.70;87.70;;;;;;5083890;28;20713;-77
2024/03/23 11:30:20;;;;;;;0.30;0.20;;;21.70;88.10;;;;;;5085259;28;20477;-78
2024/03/23 11:32:47;;;;;;;0.30;0.30;;;21.70;88.40;;;;;;5085571;28;20466;-77
2024/03/23 11:35:35;;;;;;;0.30;0.20;;;21.80;88.50;;;;;;5087065;28;20420;-77
2024/03/23 11:38:20;;;;;;;0.30;0.30;;;21.90;86.90;;;;;;5085297;28;20466;-77
2024/03/23 11:40:48;;;;;;;0.30;0.20;;;21.90;86.30;;;;;;5087014;28;20409;-77
2024/03/23 11:43:18;;;;;;;1.10;1.00;;;21.90;86.40;;;;;;5085084;28;20511;-77
2024/03/23 11:45:46;;;;;;;3.23;1.47;;;21.90;86.60;;;;;;5085772;28;20416;-77
2024/03/23 11:48:19;;;;;;;0.30;0.30;;;21.90;86.20;;;;;;5085012;28;20515;-77
2024/03/23 11:50:47;;;;;;;1.23;1.03;;;21.80;86.40;;;;;;5086902;28;20553;-78
2024/03/23 11:53:20;;;;;;;0.30;0.20;;;21.80;86.60;;;;;;5086689;28;20934;-77
2024/03/23 11:55:50;;;;;;;0.30;0.20;;;21.90;86.00;;;;;;5085454;28;20955;-78
2024/03/23 11:58:22;;;;;;;0.30;0.20;;;22.10;86.10;;;;;;5085840;28;20519;-77
2024/03/23 12:00:52;;;;;;;0.30;0.20;;;22.30;85.30;;;;;;5085345;28;20439;-77
2024/03/23 12:03:25;;;;;;;0.50;0.50;;;22.50;85.40;;;;;;5084763;28;20440;-77
2024/03/23 12:05:55;;;;;;;0.40;0.40;;;22.50;83.70;;;;;;5086526;28;20396;-77
2024/03/23 12:08:29;;;;;;;0.30;0.20;;;22.50;83.60;;;;;;5085717;28;20453;-77
2024/03/23 12:11:15;;;;;;;0.40;0.30;;;22.40;84.10;;;;;;5086659;28;20400;-77
2024/03/23 12:13:43;;;;;;;0.30;0.30;;;22.30;84.00;;;;;;5085921;28;20436;-78
2024/03/23 12:16:12;;;;;;;0.70;0.70;;;22.20;84.00;;;;;;5084941;28;20430;-78
2024/03/23 12:18:40;;;;;;;0.30;0.20;;;22.20;83.50;;;;;;5084473;28;20442;-77
2024/03/23 12:21:06;;;;;;;0.33;0.27;;;22.30;83.50;;;;;;5086436;28;20417;-77
2024/03/23 12:23:32;;;;;;;0.40;0.40;;;22.30;83.60;;;;;;5085713;28;20519;-77
2024/03/23 12:25:58;;;;;;;0.30;0.20;;;22.50;84.60;;;;;;5084071;28;20412;-77
2024/03/23 12:28:24;;;;;;;0.40;0.40;;;22.60;84.10;;;;;;5085309;28;20809;-77
2024/03/23 12:30:49;;;;;;;0.30;0.20;;;22.80;82.80;;;;;;5085957;28;20577;-77
2024/03/23 12:33:15;;;;;;;0.50;0.50;;;22.80;82.80;;;;;;5084150;28;20428;-77
2024/03/23 12:35:41;;;;;;;0.40;0.40;;;22.90;81.70;;;;;;5086218;28;20189;-77
2024/03/23 12:38:07;;;;;;;0.30;0.30;;;22.90;82.10;;;;;;5085818;28;20200;-78
2024/03/23 12:40:32;;;;;;;0.30;0.20;;;22.90;81.40;;;;;;5086181;28;20272;-77
2024/03/23 12:42:58;;;;;;;0.87;0.87;;;22.70;81.60;;;;;;5084309;28;20223;-77
2024/03/23 12:45:24;;;;;;;0.30;0.20;;;22.60;82.60;;;;;;5085625;28;20210;-77
2024/03/23 12:47:52;;;;;;;0.40;0.40;;;22.60;81.70;;;;;;5084375;28;20234;-77